Isan — FIIL — position and weather

sailwx.info

Track history (hours):
 
Tides and Currents Weather Stations Pressure Air Temp Water Temp Dewpoint Dewpoint Depression Visibility Wind Speed Wind Dir Waves Ship Positions

Isan

Last reported at 2017-Nov-15 20:06 UTC. Time now 2017-Nov-17 17:54 UTC.
Position S 22°24' E 166°43'.

Length 64 m; draft 3 m.

Type: Cargo ship. MMSI: 540012200.

Date/timePositionNaut miles runAvg speedWind from/ knotsBaromVisibWave heightAir tempDewpointWater temp
2017-Nov-15 20:06S 22°24' E 166°43'2 9.7
2017-Nov-15 19:55S 22°23' E 166°41'4 9.7
2017-Nov-15 19:30S 22°23' E 166°37'5 9.6
2017-Nov-15 19:00S 22°21' E 166°32'5 9.4
2017-Nov-15 18:30S 22°20' E 166°27'4 8.7
2017-Nov-15 18:00S 22°17' E 166°23'2 3.8
2017-Nov-15 17:31S 22°16' E 166°25'0 0.5
2017-Nov-15 16:55S 22°16' E 166°25'0 0.0
2017-Nov-15 16:28S 22°16' E 166°25'0 0.0
2017-Nov-15 15:55S 22°16' E 166°25'0 0.0
2017-Nov-15 15:28S 22°16' E 166°25'0 0.0
2017-Nov-15 14:58S 22°16' E 166°25'0 0.0
2017-Nov-15 14:28S 22°16' E 166°25'0 0.0
2017-Nov-15 13:58S 22°16' E 166°25'0 0.0
2017-Nov-15 13:28S 22°16' E 166°25'0 0.0
2017-Nov-15 12:58S 22°16' E 166°25'0 0.0
2017-Nov-15 12:28S 22°16' E 166°25'0 0.0
2017-Nov-15 11:58S 22°16' E 166°25'0 0.5
2017-Nov-15 11:30S 22°16' E 166°25'2 3.5
2017-Nov-15 11:00S 22°17' E 166°24'510.1
2017-Nov-15 10:30S 22°20' E 166°28'510.6
2017-Nov-15 10:00S 22°22' E 166°33'510.4
2017-Nov-15 09:30S 22°23' E 166°39'  
2017-Nov-13 01:59S 22°16' E 166°25'0 0.0
2017-Nov-13 01:29S 22°16' E 166°25'0 0.0
2017-Nov-13 00:59S 22°16' E 166°25'0 0.0
2017-Nov-13 00:29S 22°16' E 166°25'0 0.0
2017-Nov-12 23:58S 22°16' E 166°25'0 0.1
2017-Nov-12 23:30S 22°16' E 166°25'1 1.4
2017-Nov-12 22:58S 22°15' E 166°26'0 0.0
2017-Nov-12 22:28S 22°15' E 166°26'0 0.0
2017-Nov-12 21:58S 22°15' E 166°26'0 0.0
2017-Nov-12 21:28S 22°15' E 166°26'0 0.0
2017-Nov-12 20:58S 22°15' E 166°26'0 0.0
2017-Nov-12 20:28S 22°15' E 166°26'0 0.0
2017-Nov-12 19:58S 22°15' E 166°26'0 0.0
2017-Nov-12 19:29S 22°15' E 166°26'1 1.6
2017-Nov-12 19:00S 22°16' E 166°25'  
2017-Nov-09 12:46S 22°16' E 166°25'0 1.3
2017-Nov-09 12:30S 22°16' E 166°25'2 3.5
2017-Nov-09 12:00S 22°17' E 166°24'510.2
2017-Nov-09 11:30S 22°20' E 166°28'510.3
2017-Nov-09 10:59S 22°22' E 166°33'510.1
2017-Nov-09 10:30S 22°23' E 166°39'3 0.2
2017-Nov-08 16:41S 22°23' E 166°42'210.8
2017-Nov-08 16:28S 22°23' E 166°40'511.0
2017-Nov-08 16:00S 22°22' E 166°34'611.1
2017-Nov-08 15:30S 22°20' E 166°29'510.8
2017-Nov-08 15:01S 22°17' E 166°24'2 3.9
2017-Nov-08 14:30S 22°16' E 166°25'0 0.6
2017-Nov-08 13:59S 22°16' E 166°25'0 0.0
2017-Nov-08 13:29S 22°16' E 166°25'0 0.0
2017-Nov-08 12:59S 22°16' E 166°25'0 0.0
2017-Nov-08 12:29S 22°16' E 166°25'0 0.0
2017-Nov-08 11:59S 22°16' E 166°25'0 0.0
2017-Nov-08 11:29S 22°16' E 166°25'0 0.0
2017-Nov-08 10:59S 22°16' E 166°25'1 1.5
2017-Nov-08 10:30S 22°15' E 166°25'2 4.2
2017-Nov-08 10:00S 22°17' E 166°24'5 9.9
2017-Nov-08 09:31S 22°20' E 166°28'510.5
2017-Nov-08 09:00S 22°22' E 166°34'610.7
2017-Nov-08 08:29S 22°23' E 166°40'  
Track history (hours):
 
Tides and Currents Weather Stations Pressure Air Temp Water Temp Dewpoint Dewpoint Depression Visibility Wind Speed Wind Dir Waves Ship Positions

Isan

Last reported at 2017-Nov-15 20:06 UTC. Time now 2017-Nov-17 17:54 UTC.
Position S 22°24' E 166°43'.

Length 64 m; draft 3 m.

Type: Cargo ship. MMSI: 540012200.

Date/timePositionNaut miles runAvg speedWind from/ knotsBaromVisibWave heightAir tempDewpointWater temp
2017-Nov-15 20:06S 22°24' E 166°43'2 9.7
2017-Nov-15 19:55S 22°23' E 166°41'4 9.7
2017-Nov-15 19:30S 22°23' E 166°37'5 9.6
2017-Nov-15 19:00S 22°21' E 166°32'5 9.4
2017-Nov-15 18:30S 22°20' E 166°27'4 8.7
2017-Nov-15 18:00S 22°17' E 166°23'2 3.8
2017-Nov-15 17:31S 22°16' E 166°25'0 0.5
2017-Nov-15 16:55S 22°16' E 166°25'0 0.0
2017-Nov-15 16:28S 22°16' E 166°25'0 0.0
2017-Nov-15 15:55S 22°16' E 166°25'0 0.0
2017-Nov-15 15:28S 22°16' E 166°25'0 0.0
2017-Nov-15 14:58S 22°16' E 166°25'0 0.0
2017-Nov-15 14:28S 22°16' E 166°25'0 0.0
2017-Nov-15 13:58S 22°16' E 166°25'0 0.0
2017-Nov-15 13:28S 22°16' E 166°25'0 0.0
2017-Nov-15 12:58S 22°16' E 166°25'0 0.0
2017-Nov-15 12:28S 22°16' E 166°25'0 0.0
2017-Nov-15 11:58S 22°16' E 166°25'0 0.5
2017-Nov-15 11:30S 22°16' E 166°25'2 3.5
2017-Nov-15 11:00S 22°17' E 166°24'510.1
2017-Nov-15 10:30S 22°20' E 166°28'510.6
2017-Nov-15 10:00S 22°22' E 166°33'510.4
2017-Nov-15 09:30S 22°23' E 166°39'  
2017-Nov-13 01:59S 22°16' E 166°25'0 0.0
2017-Nov-13 01:29S 22°16' E 166°25'0 0.0
2017-Nov-13 00:59S 22°16' E 166°25'0 0.0
2017-Nov-13 00:29S 22°16' E 166°25'0 0.0
2017-Nov-12 23:58S 22°16' E 166°25'0 0.1
2017-Nov-12 23:30S 22°16' E 166°25'1 1.4
2017-Nov-12 22:58S 22°15' E 166°26'0 0.0
2017-Nov-12 22:28S 22°15' E 166°26'0 0.0
2017-Nov-12 21:58S 22°15' E 166°26'0 0.0
2017-Nov-12 21:28S 22°15' E 166°26'0 0.0
2017-Nov-12 20:58S 22°15' E 166°26'0 0.0
2017-Nov-12 20:28S 22°15' E 166°26'0 0.0
2017-Nov-12 19:58S 22°15' E 166°26'0 0.0
2017-Nov-12 19:29S 22°15' E 166°26'1 1.6
2017-Nov-12 19:00S 22°16' E 166°25'  
2017-Nov-09 12:46S 22°16' E 166°25'0 1.3
2017-Nov-09 12:30S 22°16' E 166°25'2 3.5
2017-Nov-09 12:00S 22°17' E 166°24'510.2
2017-Nov-09 11:30S 22°20' E 166°28'510.3
2017-Nov-09 10:59S 22°22' E 166°33'510.1
2017-Nov-09 10:30S 22°23' E 166°39'3 0.2
2017-Nov-08 16:41S 22°23' E 166°42'210.8
2017-Nov-08 16:28S 22°23' E 166°40'511.0
2017-Nov-08 16:00S 22°22' E 166°34'611.1
2017-Nov-08 15:30S 22°20' E 166°29'510.8
2017-Nov-08 15:01S 22°17' E 166°24'2 3.9
2017-Nov-08 14:30S 22°16' E 166°25'0 0.6
2017-Nov-08 13:59S 22°16' E 166°25'0 0.0
2017-Nov-08 13:29S 22°16' E 166°25'0 0.0
2017-Nov-08 12:59S 22°16' E 166°25'0 0.0
2017-Nov-08 12:29S 22°16' E 166°25'0 0.0
2017-Nov-08 11:59S 22°16' E 166°25'0 0.0
2017-Nov-08 11:29S 22°16' E 166°25'0 0.0
2017-Nov-08 10:59S 22°16' E 166°25'1 1.5
2017-Nov-08 10:30S 22°15' E 166°25'2 4.2
2017-Nov-08 10:00S 22°17' E 166°24'5 9.9
2017-Nov-08 09:31S 22°20' E 166°28'510.5
2017-Nov-08 09:00S 22°22' E 166°34'610.7
2017-Nov-08 08:29S 22°23' E 166°40'  

Dump ship's entire track history